sensor_id;sensor_type;location;lat;lon;timestamp;temperature;humidity
59309;DHT22;48433;53.016;-2.260;2023-09-18T00:00:49;19.20;99.90
59309;DHT22;48433;53.016;-2.260;2023-09-18T00:03:21;19.20;99.90
59309;DHT22;48433;53.016;-2.260;2023-09-18T00:05:53;19.20;99.90
59309;DHT22;48433;53.016;-2.260;2023-09-18T00:10:51;19.20;99.90
59309;DHT22;48433;53.016;-2.260;2023-09-18T00:13:21;19.20;99.90
59309;DHT22;48433;53.016;-2.260;2023-09-18T00:15:48;19.20;99.90
59309;DHT22;48433;53.016;-2.260;2023-09-18T00:18:16;19.20;99.90
59309;DHT22;48433;53.016;-2.260;2023-09-18T00:23:14;19.20;99.90
59309;DHT22;48433;53.016;-2.260;2023-09-18T00:25:43;19.30;99.90
59309;DHT22;48433;53.016;-2.260;2023-09-18T00:28:11;19.30;99.90
59309;DHT22;48433;53.016;-2.260;2023-09-18T00:30:44;19.30;99.90
59309;DHT22;48433;53.016;-2.260;2023-09-18T00:33:14;19.30;99.90
59309;DHT22;48433;53.016;-2.260;2023-09-18T00:35:49;19.30;99.90
59309;DHT22;48433;53.016;-2.260;2023-09-18T00:40:46;19.30;99.90
59309;DHT22;48433;53.016;-2.260;2023-09-18T00:45:45;19.30;99.90
59309;DHT22;48433;53.016;-2.260;2023-09-18T00:48:15;19.30;99.90
59309;DHT22;48433;53.016;-2.260;2023-09-18T00:50:45;19.30;99.90
59309;DHT22;48433;53.016;-2.260;2023-09-18T00:53:16;19.30;99.90
59309;DHT22;48433;53.016;-2.260;2023-09-18T00:55:45;19.30;99.90
59309;DHT22;48433;53.016;-2.260;2023-09-18T00:58:13;19.30;99.90
59309;DHT22;48433;53.016;-2.260;2023-09-18T01:00:41;19.30;99.90
59309;DHT22;48433;53.016;-2.260;2023-09-18T01:08:06;19.30;99.90
59309;DHT22;48433;53.016;-2.260;2023-09-18T01:13:23;19.30;99.90
59309;DHT22;48433;53.016;-2.260;2023-09-18T01:16:08;19.20;99.90
59309;DHT22;48433;53.016;-2.260;2023-09-18T01:18:37;19.20;99.90
59309;DHT22;48433;53.016;-2.260;2023-09-18T01:21:05;19.20;99.90
59309;DHT22;48433;53.016;-2.260;2023-09-18T01:23:33;19.20;99.90
59309;DHT22;48433;53.016;-2.260;2023-09-18T01:28:28;19.10;99.90
59309;DHT22;48433;53.016;-2.260;2023-09-18T01:33:25;19.00;99.90
59309;DHT22;48433;53.016;-2.260;2023-09-18T01:35:56;19.10;99.90
59309;DHT22;48433;53.016;-2.260;2023-09-18T01:38:25;19.00;99.90
59309;DHT22;48433;53.016;-2.260;2023-09-18T01:43:22;19.10;99.90
59309;DHT22;48433;53.016;-2.260;2023-09-18T01:45:50;19.00;99.90
59309;DHT22;48433;53.016;-2.260;2023-09-18T01:53:15;19.00;99.90
59309;DHT22;48433;53.016;-2.260;2023-09-18T01:55:43;19.00;99.90
59309;DHT22;48433;53.016;-2.260;2023-09-18T01:58:11;19.00;99.90
59309;DHT22;48433;53.016;-2.260;2023-09-18T02:03:12;19.00;99.90
59309;DHT22;48433;53.016;-2.260;2023-09-18T02:06:00;19.00;99.90
59309;DHT22;48433;53.016;-2.260;2023-09-18T02:08:28;19.00;99.90
59309;DHT22;48433;53.016;-2.260;2023-09-18T02:25:46;19.00;99.90
59309;DHT22;48433;53.016;-2.260;2023-09-18T02:30:43;19.00;99.90
59309;DHT22;48433;53.016;-2.260;2023-09-18T02:33:13;19.00;99.90
59309;DHT22;48433;53.016;-2.260;2023-09-18T02:35:40;19.00;99.90
59309;DHT22;48433;53.016;-2.260;2023-09-18T02:38:08;19.00;99.90
59309;DHT22;48433;53.016;-2.260;2023-09-18T02:40:36;19.00;99.90
59309;DHT22;48433;53.016;-2.260;2023-09-18T02:45:32;19.00;99.90
59309;DHT22;48433;53.016;-2.260;2023-09-18T02:48:00;19.00;99.90
59309;DHT22;48433;53.016;-2.260;2023-09-18T02:50:29;19.00;99.90
59309;DHT22;48433;53.016;-2.260;2023-09-18T02:52:56;19.00;99.90
59309;DHT22;48433;53.016;-2.260;2023-09-18T03:00:21;19.00;99.90
59309;DHT22;48433;53.016;-2.260;2023-09-18T03:03:09;19.00;99.90
59309;DHT22;48433;53.016;-2.260;2023-09-18T03:05:39;19.00;99.90
59309;DHT22;48433;53.016;-2.260;2023-09-18T03:08:08;19.00;99.90
59309;DHT22;48433;53.016;-2.260;2023-09-18T03:10:38;19.00;99.90
59309;DHT22;48433;53.016;-2.260;2023-09-18T03:13:08;19.00;99.90
59309;DHT22;48433;53.016;-2.260;2023-09-18T03:18:06;19.00;99.90
59309;DHT22;48433;53.016;-2.260;2023-09-18T03:28:19;19.00;99.90
59309;DHT22;48433;53.016;-2.260;2023-09-18T03:30:49;19.00;99.90
59309;DHT22;48433;53.016;-2.260;2023-09-18T03:33:20;18.90;99.90
59309;DHT22;48433;53.016;-2.260;2023-09-18T03:35:49;19.00;99.90
59309;DHT22;48433;53.016;-2.260;2023-09-18T03:38:21;18.90;99.90
59309;DHT22;48433;53.016;-2.260;2023-09-18T03:48:16;18.90;99.90
59309;DHT22;48433;53.016;-2.260;2023-09-18T03:55:41;18.80;99.90
59309;DHT22;48433;53.016;-2.260;2023-09-18T03:58:09;18.80;99.90
59309;DHT22;48433;53.016;-2.260;2023-09-18T04:00:38;18.80;99.90
59309;DHT22;48433;53.016;-2.260;2023-09-18T04:05:33;18.80;99.90
59309;DHT22;48433;53.016;-2.260;2023-09-18T04:10:29;18.80;99.90
59309;DHT22;48433;53.016;-2.260;2023-09-18T04:12:57;18.70;99.90
59309;DHT22;48433;53.016;-2.260;2023-09-18T04:23:17;18.70;99.90
59309;DHT22;48433;53.016;-2.260;2023-09-18T04:25:45;18.70;99.90
59309;DHT22;48433;53.016;-2.260;2023-09-18T04:28:17;18.60;99.90
59309;DHT22;48433;53.016;-2.260;2023-09-18T04:30:46;18.60;99.90
59309;DHT22;48433;53.016;-2.260;2023-09-18T04:33:15;18.60;99.90
59309;DHT22;48433;53.016;-2.260;2023-09-18T04:38:13;18.50;99.90
59309;DHT22;48433;53.016;-2.260;2023-09-18T04:40:44;18.50;99.90
59309;DHT22;48433;53.016;-2.260;2023-09-18T04:43:14;18.50;99.90
59309;DHT22;48433;53.016;-2.260;2023-09-18T04:45:42;18.40;99.90
59309;DHT22;48433;53.016;-2.260;2023-09-18T04:50:39;18.40;99.90
59309;DHT22;48433;53.016;-2.260;2023-09-18T04:53:07;18.30;99.90
59309;DHT22;48433;53.016;-2.260;2023-09-18T04:55:36;18.30;99.90
59309;DHT22;48433;53.016;-2.260;2023-09-18T05:03:02;18.20;99.90
59309;DHT22;48433;53.016;-2.260;2023-09-18T05:05:31;18.20;99.90
59309;DHT22;48433;53.016;-2.260;2023-09-18T05:07:59;18.20;99.90
59309;DHT22;48433;53.016;-2.260;2023-09-18T05:10:26;18.10;99.90
59309;DHT22;48433;53.016;-2.260;2023-09-18T05:12:54;18.10;99.90
59309;DHT22;48433;53.016;-2.260;2023-09-18T05:15:26;18.10;99.90
59309;DHT22;48433;53.016;-2.260;2023-09-18T05:17:58;18.00;99.90
59309;DHT22;48433;53.016;-2.260;2023-09-18T05:20:28;18.00;99.90
59309;DHT22;48433;53.016;-2.260;2023-09-18T05:22:57;17.90;99.90
59309;DHT22;48433;53.016;-2.260;2023-09-18T05:25:26;17.90;99.90
59309;DHT22;48433;53.016;-2.260;2023-09-18T05:30:33;17.80;99.90
59309;DHT22;48433;53.016;-2.260;2023-09-18T05:35:45;17.80;99.90
59309;DHT22;48433;53.016;-2.260;2023-09-18T05:38:14;17.80;99.90
59309;DHT22;48433;53.016;-2.260;2023-09-18T05:40:41;17.80;99.90
59309;DHT22;48433;53.016;-2.260;2023-09-18T05:43:11;17.80;99.90
59309;DHT22;48433;53.016;-2.260;2023-09-18T05:48:07;17.70;99.90
59309;DHT22;48433;53.016;-2.260;2023-09-18T05:50:38;17.70;99.90
59309;DHT22;48433;53.016;-2.260;2023-09-18T05:53:08;17.70;99.90
59309;DHT22;48433;53.016;-2.260;2023-09-18T05:55:36;17.70;99.90
59309;DHT22;48433;53.016;-2.260;2023-09-18T05:58:04;17.60;99.90
59309;DHT22;48433;53.016;-2.260;2023-09-18T06:00:32;17.60;99.90
59309;DHT22;48433;53.016;-2.260;2023-09-18T06:03:00;17.50;99.90
59309;DHT22;48433;53.016;-2.260;2023-09-18T06:05:29;17.50;99.90
59309;DHT22;48433;53.016;-2.260;2023-09-18T06:07:59;17.40;99.90
59309;DHT22;48433;53.016;-2.260;2023-09-18T06:10:27;17.40;99.90
59309;DHT22;48433;53.016;-2.260;2023-09-18T06:12:55;17.30;99.90
59309;DHT22;48433;53.016;-2.260;2023-09-18T06:15:23;17.30;99.90
59309;DHT22;48433;53.016;-2.260;2023-09-18T06:17:50;17.30;99.90
59309;DHT22;48433;53.016;-2.260;2023-09-18T06:20:18;17.20;99.90
59309;DHT22;48433;53.016;-2.260;2023-09-18T06:22:46;17.20;99.90
59309;DHT22;48433;53.016;-2.260;2023-09-18T06:25:13;17.20;99.90
59309;DHT22;48433;53.016;-2.260;2023-09-18T06:27:42;17.20;99.90
59309;DHT22;48433;53.016;-2.260;2023-09-18T06:30:10;17.20;99.90
59309;DHT22;48433;53.016;-2.260;2023-09-18T06:32:37;17.20;99.90
59309;DHT22;48433;53.016;-2.260;2023-09-18T06:35:06;17.10;99.90
59309;DHT22;48433;53.016;-2.260;2023-09-18T06:37:34;17.10;99.90
59309;DHT22;48433;53.016;-2.260;2023-09-18T06:40:01;17.10;99.90
59309;DHT22;48433;53.016;-2.260;2023-09-18T06:42:32;17.10;99.90
59309;DHT22;48433;53.016;-2.260;2023-09-18T06:45:01;17.10;99.90
59309;DHT22;48433;53.016;-2.260;2023-09-18T06:47:30;17.10;99.90
59309;DHT22;48433;53.016;-2.260;2023-09-18T06:52:28;17.10;99.90
59309;DHT22;48433;53.016;-2.260;2023-09-18T06:54:56;17.10;99.90
59309;DHT22;48433;53.016;-2.260;2023-09-18T06:57:25;17.10;99.90
59309;DHT22;48433;53.016;-2.260;2023-09-18T06:59:53;17.10;99.90
59309;DHT22;48433;53.016;-2.260;2023-09-18T07:02:21;17.10;99.90
59309;DHT22;48433;53.016;-2.260;2023-09-18T07:04:49;17.20;99.90
59309;DHT22;48433;53.016;-2.260;2023-09-18T07:07:17;17.20;99.90
59309;DHT22;48433;53.016;-2.260;2023-09-18T07:09:52;17.40;99.90
59309;DHT22;48433;53.016;-2.260;2023-09-18T07:12:31;17.30;99.90
59309;DHT22;48433;53.016;-2.260;2023-09-18T07:15:02;17.70;99.90
59309;DHT22;48433;53.016;-2.260;2023-09-18T07:20:03;17.90;99.90
59309;DHT22;48433;53.016;-2.260;2023-09-18T07:25:15;18.30;99.90
59309;DHT22;48433;53.016;-2.260;2023-09-18T07:27:43;18.40;99.90
59309;DHT22;48433;53.016;-2.260;2023-09-18T07:37:43;18.50;99.90
59309;DHT22;48433;53.016;-2.260;2023-09-18T07:40:13;18.70;99.90
59309;DHT22;48433;53.016;-2.260;2023-09-18T07:42:40;18.80;99.90
59309;DHT22;48433;53.016;-2.260;2023-09-18T07:50:05;19.10;99.90
59309;DHT22;48433;53.016;-2.260;2023-09-18T07:52:34;19.10;99.90
59309;DHT22;48433;53.016;-2.260;2023-09-18T07:55:01;19.40;99.90
59309;DHT22;48433;53.016;-2.260;2023-09-18T07:57:30;19.60;99.90
59309;DHT22;48433;53.016;-2.260;2023-09-18T07:59:59;19.70;99.90
59309;DHT22;48433;53.016;-2.260;2023-09-18T08:05:10;19.90;99.90
59309;DHT22;48433;53.016;-2.260;2023-09-18T08:07:38;20.10;99.90
59309;DHT22;48433;53.016;-2.260;2023-09-18T08:10:06;20.20;99.90
59309;DHT22;48433;53.016;-2.260;2023-09-18T08:12:35;20.40;99.90
59309;DHT22;48433;53.016;-2.260;2023-09-18T08:20:57;20.80;99.90
59309;DHT22;48433;53.016;-2.260;2023-09-18T08:23:25;20.90;99.90
59309;DHT22;48433;53.016;-2.260;2023-09-18T08:25:53;21.00;99.90
59309;DHT22;48433;53.016;-2.260;2023-09-18T08:28:26;21.20;99.90
59309;DHT22;48433;53.016;-2.260;2023-09-18T08:30:58;21.20;99.90
59309;DHT22;48433;53.016;-2.260;2023-09-18T08:33:27;21.30;99.90
59309;DHT22;48433;53.016;-2.260;2023-09-18T08:35:54;21.50;99.90
59309;DHT22;48433;53.016;-2.260;2023-09-18T08:38:22;21.60;99.90
59309;DHT22;48433;53.016;-2.260;2023-09-18T08:40:50;21.70;99.90
59309;DHT22;48433;53.016;-2.260;2023-09-18T08:43:19;21.80;99.90
59309;DHT22;48433;53.016;-2.260;2023-09-18T08:45:54;21.80;99.90
59309;DHT22;48433;53.016;-2.260;2023-09-18T08:48:24;21.90;99.90
59309;DHT22;48433;53.016;-2.260;2023-09-18T08:50:53;22.20;99.90
59309;DHT22;48433;53.016;-2.260;2023-09-18T08:53:21;22.10;99.90
59309;DHT22;48433;53.016;-2.260;2023-09-18T08:55:49;22.30;99.90
59309;DHT22;48433;53.016;-2.260;2023-09-18T08:58:17;22.30;99.90
59309;DHT22;48433;53.016;-2.260;2023-09-18T09:00:47;22.30;99.90
59309;DHT22;48433;53.016;-2.260;2023-09-18T09:03:15;22.30;99.90
59309;DHT22;48433;53.016;-2.260;2023-09-18T09:05:42;22.30;99.90
59309;DHT22;48433;53.016;-2.260;2023-09-18T09:10:38;21.90;99.90
59309;DHT22;48433;53.016;-2.260;2023-09-18T09:13:06;21.60;99.90
59309;DHT22;48433;53.016;-2.260;2023-09-18T09:15:47;21.20;99.90
59309;DHT22;48433;53.016;-2.260;2023-09-18T09:18:15;20.90;99.90
59309;DHT22;48433;53.016;-2.260;2023-09-18T09:21:01;20.70;99.90
59309;DHT22;48433;53.016;-2.260;2023-09-18T09:26:15;19.60;99.90
59309;DHT22;48433;53.016;-2.260;2023-09-18T09:28:44;19.40;99.90
59309;DHT22;48433;53.016;-2.260;2023-09-18T09:31:23;19.00;99.90
59309;DHT22;48433;53.016;-2.260;2023-09-18T09:33:52;18.70;99.90
59309;DHT22;48433;53.016;-2.260;2023-09-18T09:36:28;18.40;99.90
59309;DHT22;48433;53.016;-2.260;2023-09-18T09:38:56;18.20;99.90
59309;DHT22;48433;53.016;-2.260;2023-09-18T09:41:46;17.90;99.90
59309;DHT22;48433;53.016;-2.260;2023-09-18T09:46:46;17.50;99.90
59309;DHT22;48433;53.016;-2.260;2023-09-18T09:51:43;17.30;99.90
59309;DHT22;48433;53.016;-2.260;2023-09-18T09:54:32;17.20;99.90
59309;DHT22;48433;53.016;-2.260;2023-09-18T09:59:30;17.20;99.90
59309;DHT22;48433;53.016;-2.260;2023-09-18T10:02:01;17.10;99.90
59309;DHT22;48433;53.016;-2.260;2023-09-18T10:04:32;17.10;99.90
59309;DHT22;48433;53.016;-2.260;2023-09-18T10:07:08;17.10;99.90
59309;DHT22;48433;53.016;-2.260;2023-09-18T10:09:39;17.00;99.90
59309;DHT22;48433;53.016;-2.260;2023-09-18T10:12:14;17.10;99.90
59309;DHT22;48433;53.016;-2.260;2023-09-18T10:14:43;17.00;99.90
59309;DHT22;48433;53.016;-2.260;2023-09-18T10:17:29;17.00;99.90
59309;DHT22;48433;53.016;-2.260;2023-09-18T10:20:16;17.00;99.90
59309;DHT22;48433;53.016;-2.260;2023-09-18T10:22:54;17.00;99.90
59309;DHT22;48433;53.016;-2.260;2023-09-18T10:25:24;17.00;99.90
59309;DHT22;48433;53.016;-2.260;2023-09-18T10:27:56;16.90;99.90
59309;DHT22;48433;53.016;-2.260;2023-09-18T10:30:33;16.90;99.90
59309;DHT22;48433;53.016;-2.260;2023-09-18T10:35:30;16.80;99.90
59309;DHT22;48433;53.016;-2.260;2023-09-18T10:37:58;16.80;99.90
59309;DHT22;48433;53.016;-2.260;2023-09-18T10:40:28;16.80;99.90
59309;DHT22;48433;53.016;-2.260;2023-09-18T10:42:57;16.70;99.90
59309;DHT22;48433;53.016;-2.260;2023-09-18T10:45:27;16.60;99.90
59309;DHT22;48433;53.016;-2.260;2023-09-18T10:47:56;16.50;99.90
59309;DHT22;48433;53.016;-2.260;2023-09-18T10:50:25;16.40;99.90
59309;DHT22;48433;53.016;-2.260;2023-09-18T10:52:54;16.30;99.90
59309;DHT22;48433;53.016;-2.260;2023-09-18T10:55:24;16.20;99.90
59309;DHT22;48433;53.016;-2.260;2023-09-18T10:57:54;16.20;99.90
59309;DHT22;48433;53.016;-2.260;2023-09-18T11:00:26;16.10;99.90
59309;DHT22;48433;53.016;-2.260;2023-09-18T11:03:15;16.10;99.90
59309;DHT22;48433;53.016;-2.260;2023-09-18T11:05:46;16.00;99.90
59309;DHT22;48433;53.016;-2.260;2023-09-18T11:10:56;16.00;99.90
59309;DHT22;48433;53.016;-2.260;2023-09-18T11:13:33;16.00;99.90
59309;DHT22;48433;53.016;-2.260;2023-09-18T11:16:03;16.00;99.90
59309;DHT22;48433;53.016;-2.260;2023-09-18T11:18:40;16.00;99.90
59309;DHT22;48433;53.016;-2.260;2023-09-18T11:21:12;16.00;99.90
59309;DHT22;48433;53.016;-2.260;2023-09-18T11:23:39;16.00;99.90
59309;DHT22;48433;53.016;-2.260;2023-09-18T11:26:11;16.10;99.90
59309;DHT22;48433;53.016;-2.260;2023-09-18T11:28:38;16.10;99.90
59309;DHT22;48433;53.016;-2.260;2023-09-18T11:31:06;16.10;99.90
59309;DHT22;48433;53.016;-2.260;2023-09-18T11:36:08;16.70;99.90
59309;DHT22;48433;53.016;-2.260;2023-09-18T11:38:55;17.50;99.90
59309;DHT22;48433;53.016;-2.260;2023-09-18T11:41:27;18.00;99.90
59309;DHT22;48433;53.016;-2.260;2023-09-18T11:46:47;18.60;99.90
59309;DHT22;48433;53.016;-2.260;2023-09-18T11:49:23;19.30;99.90
59309;DHT22;48433;53.016;-2.260;2023-09-18T11:51:55;19.50;99.90
59309;DHT22;48433;53.016;-2.260;2023-09-18T11:54:27;20.00;99.90
59309;DHT22;48433;53.016;-2.260;2023-09-18T11:59:38;20.40;99.90
59309;DHT22;48433;53.016;-2.260;2023-09-18T12:02:32;21.00;99.90
59309;DHT22;48433;53.016;-2.260;2023-09-18T12:05:17;21.50;99.90
59309;DHT22;48433;53.016;-2.260;2023-09-18T12:07:47;21.40;99.90
59309;DHT22;48433;53.016;-2.260;2023-09-18T12:10:15;20.80;99.90
59309;DHT22;48433;53.016;-2.260;2023-09-18T12:12:47;20.70;99.90
59309;DHT22;48433;53.016;-2.260;2023-09-18T12:15:17;20.30;99.90
59309;DHT22;48433;53.016;-2.260;2023-09-18T12:17:45;20.00;99.90
59309;DHT22;48433;53.016;-2.260;2023-09-18T12:20:17;19.80;99.90
59309;DHT22;48433;53.016;-2.260;2023-09-18T12:22:49;19.50;99.90
59309;DHT22;48433;53.016;-2.260;2023-09-18T12:25:18;19.20;99.90
59309;DHT22;48433;53.016;-2.260;2023-09-18T12:27:52;19.10;99.90
59309;DHT22;48433;53.016;-2.260;2023-09-18T12:30:27;19.00;99.90
59309;DHT22;48433;53.016;-2.260;2023-09-18T12:32:57;18.80;99.90
59309;DHT22;48433;53.016;-2.260;2023-09-18T12:35:27;18.60;99.90
59309;DHT22;48433;53.016;-2.260;2023-09-18T12:37:58;18.50;99.90
59309;DHT22;48433;53.016;-2.260;2023-09-18T12:40:29;18.20;99.90
59309;DHT22;48433;53.016;-2.260;2023-09-18T12:42:57;17.90;99.90
59309;DHT22;48433;53.016;-2.260;2023-09-18T12:45:27;17.80;99.90
59309;DHT22;48433;53.016;-2.260;2023-09-18T12:47:58;17.70;99.90
59309;DHT22;48433;53.016;-2.260;2023-09-18T12:50:27;17.60;99.90
59309;DHT22;48433;53.016;-2.260;2023-09-18T12:53:11;17.40;99.90
59309;DHT22;48433;53.016;-2.260;2023-09-18T12:55:41;17.30;99.90
59309;DHT22;48433;53.016;-2.260;2023-09-18T12:58:11;17.20;99.90
59309;DHT22;48433;53.016;-2.260;2023-09-18T13:00:45;17.20;99.90
59309;DHT22;48433;53.016;-2.260;2023-09-18T13:08:11;17.10;99.90
59309;DHT22;48433;53.016;-2.260;2023-09-18T13:10:44;17.20;99.90
59309;DHT22;48433;53.016;-2.260;2023-09-18T13:13:19;17.20;99.90
59309;DHT22;48433;53.016;-2.260;2023-09-18T13:15:47;17.30;99.90
59309;DHT22;48433;53.016;-2.260;2023-09-18T13:18:16;17.30;99.90
59309;DHT22;48433;53.016;-2.260;2023-09-18T13:20:44;17.20;99.90
59309;DHT22;48433;53.016;-2.260;2023-09-18T13:23:12;17.30;99.90
59309;DHT22;48433;53.016;-2.260;2023-09-18T13:25:41;17.40;99.90
59309;DHT22;48433;53.016;-2.260;2023-09-18T13:28:14;17.50;99.90
59309;DHT22;48433;53.016;-2.260;2023-09-18T13:30:43;17.80;99.90
59309;DHT22;48433;53.016;-2.260;2023-09-18T13:33:12;18.00;99.90
59309;DHT22;48433;53.016;-2.260;2023-09-18T13:35:43;18.30;99.90
59309;DHT22;48433;53.016;-2.260;2023-09-18T13:40:42;18.60;99.90
59309;DHT22;48433;53.016;-2.260;2023-09-18T13:50:36;19.10;99.90
59309;DHT22;48433;53.016;-2.260;2023-09-18T14:37:42;18.20;99.90
59309;DHT22;48433;53.016;-2.260;2023-09-18T14:45:39;18.50;99.90
59309;DHT22;48433;53.016;-2.260;2023-09-18T14:50:55;18.80;99.90
59309;DHT22;48433;53.016;-2.260;2023-09-18T14:53:23;18.60;99.90
59309;DHT22;48433;53.016;-2.260;2023-09-18T14:58:19;18.80;99.90
59309;DHT22;48433;53.016;-2.260;2023-09-18T15:00:49;18.80;99.90
59309;DHT22;48433;53.016;-2.260;2023-09-18T15:05:46;19.00;99.90
59309;DHT22;48433;53.016;-2.260;2023-09-18T15:10:43;18.90;99.90
59309;DHT22;48433;53.016;-2.260;2023-09-18T15:18:11;19.00;99.90
59309;DHT22;48433;53.016;-2.260;2023-09-18T15:38:27;19.10;99.90
59309;DHT22;48433;53.016;-2.260;2023-09-18T15:40:55;19.00;99.90
59309;DHT22;48433;53.016;-2.260;2023-09-18T15:43:25;18.70;99.90
59309;DHT22;48433;53.016;-2.260;2023-09-18T15:45:54;18.60;99.90
59309;DHT22;48433;53.016;-2.260;2023-09-18T15:48:22;18.60;99.90
59309;DHT22;48433;53.016;-2.260;2023-09-18T15:50:50;18.50;99.90
59309;DHT22;48433;53.016;-2.260;2023-09-18T15:53:18;18.50;99.90
59309;DHT22;48433;53.016;-2.260;2023-09-18T15:58:13;18.40;99.90
59309;DHT22;48433;53.016;-2.260;2023-09-18T16:00:41;18.40;99.90
59309;DHT22;48433;53.016;-2.260;2023-09-18T16:03:10;18.40;99.90
59309;DHT22;48433;53.016;-2.260;2023-09-18T16:08:06;18.20;99.90
59309;DHT22;48433;53.016;-2.260;2023-09-18T16:10:34;18.20;99.90
59309;DHT22;48433;53.016;-2.260;2023-09-18T16:15:30;18.00;99.90
59309;DHT22;48433;53.016;-2.260;2023-09-18T16:17:59;17.90;99.90
59309;DHT22;48433;53.016;-2.260;2023-09-18T16:20:26;17.90;99.90
59309;DHT22;48433;53.016;-2.260;2023-09-18T16:22:54;17.80;99.90
59309;DHT22;48433;53.016;-2.260;2023-09-18T16:25:22;17.80;99.90
59309;DHT22;48433;53.016;-2.260;2023-09-18T16:27:50;17.80;99.90
59309;DHT22;48433;53.016;-2.260;2023-09-18T16:32:46;17.80;99.90
59309;DHT22;48433;53.016;-2.260;2023-09-18T16:35:14;17.80;99.90
59309;DHT22;48433;53.016;-2.260;2023-09-18T16:37:42;17.80;99.90
59309;DHT22;48433;53.016;-2.260;2023-09-18T16:40:15;17.70;99.90
59309;DHT22;48433;53.016;-2.260;2023-09-18T16:42:43;17.70;99.90
59309;DHT22;48433;53.016;-2.260;2023-09-18T16:45:12;17.70;99.90
59309;DHT22;48433;53.016;-2.260;2023-09-18T16:47:40;17.70;99.90
59309;DHT22;48433;53.016;-2.260;2023-09-18T16:50:08;17.70;99.90
59309;DHT22;48433;53.016;-2.260;2023-09-18T16:52:36;17.70;99.90
59309;DHT22;48433;53.016;-2.260;2023-09-18T16:55:06;17.60;99.90
59309;DHT22;48433;53.016;-2.260;2023-09-18T16:57:34;17.60;99.90
59309;DHT22;48433;53.016;-2.260;2023-09-18T17:00:02;17.50;99.90
59309;DHT22;48433;53.016;-2.260;2023-09-18T17:02:33;17.40;99.90
59309;DHT22;48433;53.016;-2.260;2023-09-18T17:05:02;17.40;99.90
59309;DHT22;48433;53.016;-2.260;2023-09-18T17:07:32;17.30;99.90
59309;DHT22;48433;53.016;-2.260;2023-09-18T17:09:59;17.30;99.90
59309;DHT22;48433;53.016;-2.260;2023-09-18T17:12:27;17.20;99.90
59309;DHT22;48433;53.016;-2.260;2023-09-18T17:14:55;17.10;99.90
59309;DHT22;48433;53.016;-2.260;2023-09-18T17:19:51;17.00;99.90
59309;DHT22;48433;53.016;-2.260;2023-09-18T17:22:19;16.90;99.90
59309;DHT22;48433;53.016;-2.260;2023-09-18T17:24:47;16.80;99.90
59309;DHT22;48433;53.016;-2.260;2023-09-18T17:27:15;16.80;99.90
59309;DHT22;48433;53.016;-2.260;2023-09-18T17:32:11;16.60;99.90
59309;DHT22;48433;53.016;-2.260;2023-09-18T17:34:38;16.60;99.90
59309;DHT22;48433;53.016;-2.260;2023-09-18T17:37:06;16.50;99.90
59309;DHT22;48433;53.016;-2.260;2023-09-18T17:39:34;16.60;99.90
59309;DHT22;48433;53.016;-2.260;2023-09-18T17:42:03;16.60;99.90
59309;DHT22;48433;53.016;-2.260;2023-09-18T17:44:31;16.60;99.90
59309;DHT22;48433;53.016;-2.260;2023-09-18T17:46:59;16.60;99.90
59309;DHT22;48433;53.016;-2.260;2023-09-18T17:49:27;16.50;99.90
59309;DHT22;48433;53.016;-2.260;2023-09-18T17:51:54;16.50;99.90
59309;DHT22;48433;53.016;-2.260;2023-09-18T17:54:22;16.40;99.90
59309;DHT22;48433;53.016;-2.260;2023-09-18T17:56:50;16.30;99.90
59309;DHT22;48433;53.016;-2.260;2023-09-18T17:59:17;16.40;99.90
59309;DHT22;48433;53.016;-2.260;2023-09-18T18:01:45;16.30;99.90
59309;DHT22;48433;53.016;-2.260;2023-09-18T18:04:13;16.20;99.90
59309;DHT22;48433;53.016;-2.260;2023-09-18T18:06:41;16.20;99.90
59309;DHT22;48433;53.016;-2.260;2023-09-18T18:09:11;16.10;99.90
59309;DHT22;48433;53.016;-2.260;2023-09-18T18:11:39;16.00;99.90
59309;DHT22;48433;53.016;-2.260;2023-09-18T18:14:06;16.00;99.90
59309;DHT22;48433;53.016;-2.260;2023-09-18T18:19:02;16.00;99.90
59309;DHT22;48433;53.016;-2.260;2023-09-18T18:21:33;15.90;99.90
59309;DHT22;48433;53.016;-2.260;2023-09-18T18:24:01;15.80;99.90
59309;DHT22;48433;53.016;-2.260;2023-09-18T18:26:31;15.70;99.90
59309;DHT22;48433;53.016;-2.260;2023-09-18T18:29:01;15.60;99.90
59309;DHT22;48433;53.016;-2.260;2023-09-18T18:31:31;15.40;99.90
59309;DHT22;48433;53.016;-2.260;2023-09-18T18:36:29;15.10;99.90
59309;DHT22;48433;53.016;-2.260;2023-09-18T18:38:57;15.10;99.90
59309;DHT22;48433;53.016;-2.260;2023-09-18T18:41:25;15.10;99.90
59309;DHT22;48433;53.016;-2.260;2023-09-18T18:43:53;15.00;99.90
59309;DHT22;48433;53.016;-2.260;2023-09-18T18:46:20;15.00;99.90
59309;DHT22;48433;53.016;-2.260;2023-09-18T18:48:48;14.90;99.90
59309;DHT22;48433;53.016;-2.260;2023-09-18T18:51:16;15.00;99.90
59309;DHT22;48433;53.016;-2.260;2023-09-18T18:53:47;14.90;99.90
59309;DHT22;48433;53.016;-2.260;2023-09-18T18:56:18;15.10;99.90
59309;DHT22;48433;53.016;-2.260;2023-09-18T18:58:47;15.10;99.90
59309;DHT22;48433;53.016;-2.260;2023-09-18T19:01:19;15.20;99.90
59309;DHT22;48433;53.016;-2.260;2023-09-18T19:03:51;15.20;99.90
59309;DHT22;48433;53.016;-2.260;2023-09-18T19:06:21;15.10;99.90
59309;DHT22;48433;53.016;-2.260;2023-09-18T19:08:49;15.00;99.90
59309;DHT22;48433;53.016;-2.260;2023-09-18T19:11:17;15.00;99.90
59309;DHT22;48433;53.016;-2.260;2023-09-18T19:13:45;15.00;99.90
59309;DHT22;48433;53.016;-2.260;2023-09-18T19:16:14;15.00;99.90
59309;DHT22;48433;53.016;-2.260;2023-09-18T19:18:43;15.00;99.90
59309;DHT22;48433;53.016;-2.260;2023-09-18T19:21:10;14.90;99.90
59309;DHT22;48433;53.016;-2.260;2023-09-18T19:23:39;14.90;99.90
59309;DHT22;48433;53.016;-2.260;2023-09-18T19:26:10;14.80;99.90
59309;DHT22;48433;53.016;-2.260;2023-09-18T19:28:39;14.80;99.90
59309;DHT22;48433;53.016;-2.260;2023-09-18T19:31:06;14.80;99.90
59309;DHT22;48433;53.016;-2.260;2023-09-18T19:33:36;14.80;99.90
59309;DHT22;48433;53.016;-2.260;2023-09-18T19:36:07;14.80;99.90
59309;DHT22;48433;53.016;-2.260;2023-09-18T19:38:36;14.80;99.90
59309;DHT22;48433;53.016;-2.260;2023-09-18T19:41:05;14.80;99.90
59309;DHT22;48433;53.016;-2.260;2023-09-18T19:43:33;14.80;99.90
59309;DHT22;48433;53.016;-2.260;2023-09-18T19:46:01;14.70;99.90
59309;DHT22;48433;53.016;-2.260;2023-09-18T19:48:29;14.70;99.90
59309;DHT22;48433;53.016;-2.260;2023-09-18T19:50:59;14.70;99.90
59309;DHT22;48433;53.016;-2.260;2023-09-18T19:53:28;14.70;99.90
59309;DHT22;48433;53.016;-2.260;2023-09-18T19:55:56;14.70;99.90
59309;DHT22;48433;53.016;-2.260;2023-09-18T19:58:24;14.80;99.90
59309;DHT22;48433;53.016;-2.260;2023-09-18T20:00:52;14.70;99.90
59309;DHT22;48433;53.016;-2.260;2023-09-18T20:03:21;14.80;99.90
59309;DHT22;48433;53.016;-2.260;2023-09-18T20:05:51;14.70;99.90
59309;DHT22;48433;53.016;-2.260;2023-09-18T20:08:19;14.70;99.90
59309;DHT22;48433;53.016;-2.260;2023-09-18T20:10:47;14.70;99.90
59309;DHT22;48433;53.016;-2.260;2023-09-18T20:13:15;14.70;99.90